Volga-4011 — UBNJ — position and weather

sailwx.info

Track history (hours):
 
Tides and Currents Weather Stations Pressure Air Temp Water Temp Dewpoint Dewpoint Depression Visibility Wind Speed Wind Dir Waves Ship Positions

Volga-4011

Last reported at 2014-Nov-05 11:21 UTC. Time now 2014-Nov-24 18:09 UTC.
Position N 31°15' E 121°46'.
Warning: this ship's position is 19 days out of date.

Length 140 m; draft 3.6 m.

Type: Cargo ship. MMSI: 273358200.

Date/timePositionNaut miles runAvg speedWind from/ knotsBaromVisibWave heightAir tempDewpointWater temp
2014-Nov-05 11:21N 31°15' E 121°46'910.5
2014-Nov-05 10:31N 31°21' E 121°39'1110.9
2014-Nov-05 09:33N 31°27' E 121°28'1110.9
2014-Nov-05 08:33N 31°34' E 121°19'1110.7
2014-Nov-05 07:33N 31°42' E 121°09'7 5.0
2014-Nov-05 06:09N 31°45' E 121°02'0 0.0
2014-Nov-05 05:04N 31°45' E 121°02'0 0.0
2014-Nov-05 04:16N 31°45' E 121°02'0 0.0
2014-Nov-05 03:23N 31°45' E 121°02'0 0.0
2014-Nov-05 02:18N 31°45' E 121°02'0 0.0
2014-Nov-05 01:31N 31°45' E 121°02'0 0.0
2014-Nov-05 00:07N 31°45' E 121°02'0 0.0
2014-Nov-04 23:26N 31°45' E 121°02'0 0.0
2014-Nov-04 21:33N 31°45' E 121°02'0 0.0
2014-Nov-04 20:28N 31°45' E 121°02'0 0.0
2014-Nov-04 19:28N 31°45' E 121°02'0 0.0
2014-Nov-04 18:17N 31°45' E 121°02'0 0.0
2014-Nov-04 17:30N 31°45' E 121°02'0 0.0
2014-Nov-04 16:30N 31°45' E 121°02'0 0.0
2014-Nov-04 15:19N 31°45' E 121°02'0 0.0
2014-Nov-04 12:27N 31°45' E 121°02'0 0.0
2014-Nov-04 11:16N 31°45' E 121°02'0 0.0
2014-Nov-04 10:28N 31°45' E 121°02'0 0.0
2014-Nov-04 09:17N 31°45' E 121°02'1 1.2
2014-Nov-04 08:33N 31°44' E 121°03'3 2.8
2014-Nov-04 07:21N 31°44' E 121°07'0 0.0
2014-Nov-04 06:22N 31°44' E 121°07'0 0.1
2014-Nov-04 05:28N 31°45' E 121°07'0 0.0
2014-Nov-04 04:23N 31°45' E 121°07'0 0.0
2014-Nov-04 03:12N 31°45' E 121°07'0 0.0
2014-Nov-04 02:24N 31°45' E 121°07'0 0.0
2014-Nov-04 01:25N 31°45' E 121°07'0 0.1
2014-Nov-04 00:31N 31°44' E 121°07'0 0.0
2014-Nov-03 23:20N 31°44' E 121°07'0 0.1
2014-Nov-03 22:33N 31°44' E 121°07'0 0.1
2014-Nov-03 21:33N 31°44' E 121°07'0 0.0
2014-Nov-03 20:16N 31°44' E 121°07'0 0.0
2014-Nov-03 19:29N 31°44' E 121°07'0 0.1
2014-Nov-03 18:47N 31°44' E 121°07'0 0.0
2014-Nov-03 18:00N 31°44' E 121°07'0 0.0
2014-Nov-03 17:36N 31°44' E 121°07'0 0.9
2014-Nov-03 17:33N 31°44' E 121°07'0 0.1
2014-Nov-03 16:31N 31°45' E 121°07'0 0.0
2014-Nov-03 14:32N 31°45' E 121°07'0 0.0
2014-Nov-03 13:33N 31°45' E 121°07'0 0.1
2014-Nov-03 12:12N 31°44' E 121°07'0 0.0
2014-Nov-03 11:04N 31°44' E 121°07'0 0.0
2014-Nov-03 10:28N 31°44' E 121°07'0 0.0
2014-Nov-03 09:23N 31°44' E 121°07'0 0.0
2014-Nov-03 08:24N 31°44' E 121°07'0 0.0
2014-Nov-03 07:31N 31°44' E 121°07'0 0.0
2014-Nov-03 06:31N 31°44' E 121°07'0 0.0
2014-Nov-03 05:14N 31°45' E 121°07'0 0.1
2014-Nov-03 04:33N 31°45' E 121°07'0 0.1
2014-Nov-03 03:06N 31°45' E 121°07'2 3.1
2014-Nov-03 02:32N 31°44' E 121°05'2 2.1
2014-Nov-03 01:24N 31°45' E 121°02'0 0.0
2014-Nov-03 00:30N 31°45' E 121°02'0 0.0
2014-Nov-02 23:31N 31°45' E 121°02'0 0.0
2014-Nov-02 22:32N 31°45' E 121°02'0 0.0
2014-Nov-02 21:32N 31°45' E 121°02'0 0.0
2014-Nov-02 20:33N 31°45' E 121°02'0 0.0
2014-Nov-02 19:16N 31°45' E 121°02'0 0.0
2014-Nov-02 18:22N 31°45' E 121°02'0 0.0
2014-Nov-02 17:29N 31°45' E 121°02'0 0.0
2014-Nov-02 16:30N 31°45' E 121°02'0 0.0
2014-Nov-02 15:12N 31°45' E 121°02'0 0.0
2014-Nov-02 14:31N 31°45' E 121°02'0 0.0
2014-Nov-02 13:26N 31°45' E 121°02'0 0.0
2014-Nov-02 12:32N 31°45' E 121°02'0 0.0
2014-Nov-02 11:33N 31°45' E 121°02'0 0.0
2014-Nov-02 10:28N 31°45' E 121°02'0 0.0
2014-Nov-02 07:29N 31°45' E 121°02'0 0.0
2014-Nov-02 06:30N 31°45' E 121°02'0 0.0
2014-Nov-02 05:31N 31°45' E 121°02'1 1.5
2014-Nov-02 04:31N 31°44' E 121°04'7 7.5
2014-Nov-02 03:32N 31°41' E 121°11'8 8.3
2014-Nov-02 02:32N 31°35' E 121°18'9 8.4
2014-Nov-02 01:31N 31°29' E 121°26'8 7.9
2014-Nov-02 00:33N 31°24' E 121°33'9 8.9
2014-Nov-01 23:33N 31°20' E 121°42'  
Track history (hours):
 
Tides and Currents Weather Stations Pressure Air Temp Water Temp Dewpoint Dewpoint Depression Visibility Wind Speed Wind Dir Waves Ship Positions

Volga-4011

Last reported at 2014-Nov-05 11:21 UTC. Time now 2014-Nov-24 18:09 UTC.
Position N 31°15' E 121°46'.
Warning: this ship's position is 19 days out of date.

Length 140 m; draft 3.6 m.

Type: Cargo ship. MMSI: 273358200.

Date/timePositionNaut miles runAvg speedWind from/ knotsBaromVisibWave heightAir tempDewpointWater temp
2014-Nov-05 11:21N 31°15' E 121°46'910.5
2014-Nov-05 10:31N 31°21' E 121°39'1110.9
2014-Nov-05 09:33N 31°27' E 121°28'1110.9
2014-Nov-05 08:33N 31°34' E 121°19'1110.7
2014-Nov-05 07:33N 31°42' E 121°09'7 5.0
2014-Nov-05 06:09N 31°45' E 121°02'0 0.0
2014-Nov-05 05:04N 31°45' E 121°02'0 0.0
2014-Nov-05 04:16N 31°45' E 121°02'0 0.0
2014-Nov-05 03:23N 31°45' E 121°02'0 0.0
2014-Nov-05 02:18N 31°45' E 121°02'0 0.0
2014-Nov-05 01:31N 31°45' E 121°02'0 0.0
2014-Nov-05 00:07N 31°45' E 121°02'0 0.0
2014-Nov-04 23:26N 31°45' E 121°02'0 0.0
2014-Nov-04 21:33N 31°45' E 121°02'0 0.0
2014-Nov-04 20:28N 31°45' E 121°02'0 0.0
2014-Nov-04 19:28N 31°45' E 121°02'0 0.0
2014-Nov-04 18:17N 31°45' E 121°02'0 0.0
2014-Nov-04 17:30N 31°45' E 121°02'0 0.0
2014-Nov-04 16:30N 31°45' E 121°02'0 0.0
2014-Nov-04 15:19N 31°45' E 121°02'0 0.0
2014-Nov-04 12:27N 31°45' E 121°02'0 0.0
2014-Nov-04 11:16N 31°45' E 121°02'0 0.0
2014-Nov-04 10:28N 31°45' E 121°02'0 0.0
2014-Nov-04 09:17N 31°45' E 121°02'1 1.2
2014-Nov-04 08:33N 31°44' E 121°03'3 2.8
2014-Nov-04 07:21N 31°44' E 121°07'0 0.0
2014-Nov-04 06:22N 31°44' E 121°07'0 0.1
2014-Nov-04 05:28N 31°45' E 121°07'0 0.0
2014-Nov-04 04:23N 31°45' E 121°07'0 0.0
2014-Nov-04 03:12N 31°45' E 121°07'0 0.0
2014-Nov-04 02:24N 31°45' E 121°07'0 0.0
2014-Nov-04 01:25N 31°45' E 121°07'0 0.1
2014-Nov-04 00:31N 31°44' E 121°07'0 0.0
2014-Nov-03 23:20N 31°44' E 121°07'0 0.1
2014-Nov-03 22:33N 31°44' E 121°07'0 0.1
2014-Nov-03 21:33N 31°44' E 121°07'0 0.0
2014-Nov-03 20:16N 31°44' E 121°07'0 0.0
2014-Nov-03 19:29N 31°44' E 121°07'0 0.1
2014-Nov-03 18:47N 31°44' E 121°07'0 0.0
2014-Nov-03 18:00N 31°44' E 121°07'0 0.0
2014-Nov-03 17:36N 31°44' E 121°07'0 0.9
2014-Nov-03 17:33N 31°44' E 121°07'0 0.1
2014-Nov-03 16:31N 31°45' E 121°07'0 0.0
2014-Nov-03 14:32N 31°45' E 121°07'0 0.0
2014-Nov-03 13:33N 31°45' E 121°07'0 0.1
2014-Nov-03 12:12N 31°44' E 121°07'0 0.0
2014-Nov-03 11:04N 31°44' E 121°07'0 0.0
2014-Nov-03 10:28N 31°44' E 121°07'0 0.0
2014-Nov-03 09:23N 31°44' E 121°07'0 0.0
2014-Nov-03 08:24N 31°44' E 121°07'0 0.0
2014-Nov-03 07:31N 31°44' E 121°07'0 0.0
2014-Nov-03 06:31N 31°44' E 121°07'0 0.0
2014-Nov-03 05:14N 31°45' E 121°07'0 0.1
2014-Nov-03 04:33N 31°45' E 121°07'0 0.1
2014-Nov-03 03:06N 31°45' E 121°07'2 3.1
2014-Nov-03 02:32N 31°44' E 121°05'2 2.1
2014-Nov-03 01:24N 31°45' E 121°02'0 0.0
2014-Nov-03 00:30N 31°45' E 121°02'0 0.0
2014-Nov-02 23:31N 31°45' E 121°02'0 0.0
2014-Nov-02 22:32N 31°45' E 121°02'0 0.0
2014-Nov-02 21:32N 31°45' E 121°02'0 0.0
2014-Nov-02 20:33N 31°45' E 121°02'0 0.0
2014-Nov-02 19:16N 31°45' E 121°02'0 0.0
2014-Nov-02 18:22N 31°45' E 121°02'0 0.0
2014-Nov-02 17:29N 31°45' E 121°02'0 0.0
2014-Nov-02 16:30N 31°45' E 121°02'0 0.0
2014-Nov-02 15:12N 31°45' E 121°02'0 0.0
2014-Nov-02 14:31N 31°45' E 121°02'0 0.0
2014-Nov-02 13:26N 31°45' E 121°02'0 0.0
2014-Nov-02 12:32N 31°45' E 121°02'0 0.0
2014-Nov-02 11:33N 31°45' E 121°02'0 0.0
2014-Nov-02 10:28N 31°45' E 121°02'0 0.0
2014-Nov-02 07:29N 31°45' E 121°02'0 0.0
2014-Nov-02 06:30N 31°45' E 121°02'0 0.0
2014-Nov-02 05:31N 31°45' E 121°02'1 1.5
2014-Nov-02 04:31N 31°44' E 121°04'7 7.5
2014-Nov-02 03:32N 31°41' E 121°11'8 8.3
2014-Nov-02 02:32N 31°35' E 121°18'9 8.4
2014-Nov-02 01:31N 31°29' E 121°26'8 7.9
2014-Nov-02 00:33N 31°24' E 121°33'9 8.9
2014-Nov-01 23:33N 31°20' E 121°42'  

Dump ship's entire track history